Time;durP1;ratioP1;P1;durP2;ratioP2;P2;SDS_P1;SDS_P2;PMS_P1;PMS_P2;Temp;Humidity;BMP_temperature;BMP_pressure;BME280_temperature;BME280_humidity;BME280_pressure;Samples;Min_cycle;Max_cycle;Signal;HPM_P1;HPM_P2
2022/10/08 00:01:31;;;;;;;5.78;1.30;;;13.50;99.90;;;;;;5052744;28;20048;-70
2022/10/08 00:03:57;;;;;;;4.15;1.35;;;13.30;99.90;;;;;;5052467;28;20154;-71
2022/10/08 00:06:30;;;;;;;4.45;1.23;;;13.30;99.90;;;;;;5055377;28;20459;-71
2022/10/08 00:08:59;;;;;;;7.57;1.02;;;13.30;99.90;;;;;;5056244;28;20056;-71
2022/10/08 00:11:28;;;;;;;5.90;1.13;;;13.20;99.90;;;;;;5056435;28;20044;-70
2022/10/08 00:13:54;;;;;;;7.70;1.35;;;13.20;99.90;;;;;;5054990;28;20055;-71
2022/10/08 00:16:22;;;;;;;4.95;1.50;;;13.50;99.90;;;;;;5038794;28;20048;-71
2022/10/08 00:18:49;;;;;;;6.88;1.40;;;13.20;99.90;;;;;;5055290;28;20549;-71
2022/10/08 00:21:21;;;;;;;5.28;1.15;;;13.20;99.90;;;;;;5055962;28;20493;-70
2022/10/08 00:23:48;;;;;;;3.88;1.10;;;13.20;99.90;;;;;;5072108;28;20429;-70
2022/10/08 00:26:16;;;;;;;5.40;1.17;;;13.10;99.90;;;;;;5056017;28;20041;-70
2022/10/08 00:28:44;;;;;;;6.22;1.20;;;13.20;99.90;;;;;;5054796;28;20478;-70
2022/10/08 00:31:14;;;;;;;5.32;0.98;;;13.30;99.90;;;;;;5055804;28;20417;-70
2022/10/08 00:33:40;;;;;;;5.53;1.00;;;13.10;99.90;;;;;;5054801;28;20053;-70
2022/10/08 00:36:09;;;;;;;9.05;1.08;;;13.20;99.90;;;;;;5054983;28;20106;-70
2022/10/08 00:38:35;;;;;;;6.13;1.33;;;13.10;99.90;;;;;;5055873;28;20056;-70
2022/10/08 00:41:04;;;;;;;8.43;1.13;;;13.10;99.90;;;;;;5054828;28;20079;-70
2022/10/08 00:43:48;;;;;;;4.88;1.25;;;13.30;99.90;;;;;;5054814;28;20119;-70
2022/10/08 00:46:27;;;;;;;5.97;1.30;;;13.00;99.90;;;;;;5054486;28;20045;-70
2022/10/08 00:49:10;;;;;;;3.88;0.82;;;13.00;99.90;;;;;;5055566;28;20512;-70
2022/10/08 00:51:43;;;;;;;4.78;1.02;;;13.10;99.90;;;;;;5055696;28;20091;-70
2022/10/08 00:54:10;;;;;;;5.55;1.20;;;13.00;99.90;;;;;;5055572;28;20507;-70
2022/10/08 00:56:38;;;;;;;5.22;1.10;;;13.10;99.90;;;;;;5054279;28;20114;-70
2022/10/08 00:59:06;;;;;;;4.97;1.08;;;13.00;99.90;;;;;;5055177;28;20078;-70
2022/10/08 01:01:31;;;;;;;5.95;1.00;;;13.00;99.90;;;;;;5055382;28;20044;-70
2022/10/08 01:04:03;;;;;;;3.10;0.80;;;13.00;99.90;;;;;;5055547;28;20049;-71
2022/10/08 01:06:30;;;;;;;3.30;1.10;;;13.20;99.90;;;;;;5055726;28;20053;-70
2022/10/08 01:09:10;;;;;;;4.38;0.82;;;13.10;99.90;;;;;;5055330;28;20053;-70
2022/10/08 01:11:52;;;;;;;4.82;1.00;;;13.00;99.90;;;;;;5055542;28;20052;-70
2022/10/08 01:14:33;;;;;;;3.13;0.88;;;12.90;99.90;;;;;;5055595;28;20060;-70
2022/10/08 01:17:22;;;;;;;5.25;1.13;;;13.00;99.90;;;;;;5053553;28;20404;-70
2022/10/08 01:20:30;;;;;;;3.80;0.70;;;13.10;99.90;;;;;;5055151;28;20048;-70
2022/10/08 01:23:29;;;;;;;4.45;1.27;;;13.10;99.90;;;;;;5055083;28;20081;-70
2022/10/08 01:26:31;;;;;;;5.95;1.10;;;13.10;99.90;;;;;;5053935;28;20056;-70
2022/10/08 01:29:07;;;;;;;3.88;1.00;;;13.10;99.90;;;;;;5054758;28;20037;-70
2022/10/08 01:31:41;;;;;;;2.53;0.70;;;13.10;99.90;;;;;;5055159;28;20417;-70
2022/10/08 01:34:17;;;;;;;4.53;0.70;;;13.00;99.90;;;;;;5053617;28;20048;-70
2022/10/08 01:36:47;;;;;;;1.70;0.70;;;13.10;99.90;;;;;;5055038;28;20040;-70
2022/10/08 01:39:17;;;;;;;1.88;0.57;;;13.20;99.90;;;;;;5054743;28;20047;-71
2022/10/08 01:41:47;;;;;;;2.17;0.80;;;13.00;99.90;;;;;;5054788;28;20448;-70
2022/10/08 01:44:22;;;;;;;2.28;0.68;;;12.90;99.90;;;;;;5054454;28;20045;-70
2022/10/08 01:46:50;;;;;;;2.97;0.60;;;13.00;99.90;;;;;;5054556;28;20049;-70
2022/10/08 01:49:21;;;;;;;4.50;0.60;;;13.00;99.90;;;;;;5054654;28;20070;-71
2022/10/08 01:51:52;;;;;;;2.70;0.60;;;13.00;99.90;;;;;;5053454;28;20167;-71
2022/10/08 01:54:20;;;;;;;3.53;0.75;;;13.10;99.90;;;;;;5054541;28;20044;-71
2022/10/08 01:56:48;;;;;;;2.33;0.57;;;13.00;99.90;;;;;;5053027;28;20436;-71
2022/10/08 01:59:23;;;;;;;3.53;0.80;;;12.80;99.90;;;;;;5053838;28;20457;-71
2022/10/08 02:01:57;;;;;;;1.95;0.60;;;12.90;99.90;;;;;;5054295;28;20377;-71
2022/10/08 02:04:36;;;;;;;3.20;0.60;;;12.90;99.90;;;;;;5053983;28;20052;-71
2022/10/08 02:07:13;;;;;;;2.90;0.70;;;13.00;99.90;;;;;;5053734;28;20117;-71
2022/10/08 02:09:43;;;;;;;1.80;0.85;;;12.80;99.90;;;;;;5053004;28;20059;-71
2022/10/08 02:12:10;;;;;;;5.22;0.65;;;12.90;99.90;;;;;;5052990;28;20048;-71
2022/10/08 02:14:39;;;;;;;4.32;0.70;;;12.70;99.90;;;;;;5053034;28;20090;-71
2022/10/08 02:17:31;;;;;;;5.78;0.70;;;12.70;99.90;;;;;;5054046;28;20033;-71
2022/10/08 02:20:02;;;;;;;2.45;0.65;;;12.70;99.90;;;;;;5053788;28;20049;-71
2022/10/08 02:22:34;;;;;;;2.28;0.90;;;12.70;99.90;;;;;;5053618;28;20049;-71
2022/10/08 02:25:18;;;;;;;5.22;0.68;;;12.50;99.90;;;;;;5069118;28;20053;-71
2022/10/08 02:28:21;;;;;;;2.58;0.60;;;12.60;99.90;;;;;;5036002;28;20404;-71
2022/10/08 02:30:55;;;;;;;1.88;0.60;;;12.50;99.90;;;;;;5048478;28;20409;-71
2022/10/08 02:33:30;;;;;;;3.63;0.50;;;12.40;99.90;;;;;;5053469;28;20520;-71
2022/10/08 02:35:59;;;;;;;1.45;0.60;;;12.50;99.90;;;;;;5053641;28;20045;-71
2022/10/08 02:38:36;;;;;;;3.92;0.68;;;12.40;99.90;;;;;;5036082;28;20490;-71
2022/10/08 02:41:05;;;;;;;2.63;0.70;;;12.30;99.90;;;;;;5053332;28;20048;-71
2022/10/08 02:43:34;;;;;;;2.63;0.70;;;12.30;99.90;;;;;;5052567;28;20044;-71
2022/10/08 02:46:21;;;;;;;2.05;0.60;;;12.40;99.90;;;;;;5053456;28;20048;-71
2022/10/08 02:49:01;;;;;;;4.88;1.02;;;12.30;99.90;;;;;;5053727;28;20059;-71
2022/10/08 02:51:29;;;;;;;2.97;0.57;;;12.20;99.90;;;;;;5053312;28;20621;-71
2022/10/08 02:53:56;;;;;;;3.25;0.60;;;12.10;99.90;;;;;;5052292;28;20067;-71
2022/10/08 02:56:33;;;;;;;1.33;0.68;;;12.20;99.90;;;;;;5052276;28;20045;-71
2022/10/08 02:58:59;;;;;;;2.60;0.70;;;12.10;99.90;;;;;;5052655;28;20048;-71
2022/10/08 03:01:52;;;;;;;2.85;0.60;;;12.20;99.90;;;;;;5053461;28;20095;-71
2022/10/08 03:04:24;;;;;;;;;;;12.10;99.90;;;;;;5053902;28;20114;-72
2022/10/08 03:06:52;;;;;;;2.85;1.02;;;12.10;99.90;;;;;;5053095;28;19924;-71
2022/10/08 03:09:19;;;;;;;3.85;0.73;;;12.00;99.90;;;;;;5052216;28;20052;-71
2022/10/08 03:11:45;;;;;;;2.58;0.80;;;12.10;99.90;;;;;;5053387;28;20405;-71
2022/10/08 03:14:13;;;;;;;3.53;0.70;;;11.90;99.90;;;;;;5052906;28;20056;-71
2022/10/08 03:16:45;;;;;;;3.30;0.70;;;12.20;99.90;;;;;;5052051;28;20099;-71
2022/10/08 03:19:16;;;;;;;3.58;1.00;;;11.90;99.90;;;;;;5053179;28;20074;-71
2022/10/08 03:21:44;;;;;;;3.95;0.95;;;11.90;99.90;;;;;;5052071;28;20485;-71
2022/10/08 03:24:11;;;;;;;2.63;0.90;;;11.90;99.90;;;;;;5052890;28;20057;-71
2022/10/08 03:26:37;;;;;;;4.40;1.10;;;12.00;99.90;;;;;;5052897;28;20120;-71
2022/10/08 03:29:04;;;;;;;2.80;0.95;;;11.80;99.90;;;;;;5051172;28;20049;-71
2022/10/08 03:31:30;;;;;;;3.65;1.20;;;11.90;99.90;;;;;;5035666;28;20057;-71
2022/10/08 03:33:56;;;;;;;4.15;1.00;;;12.10;99.90;;;;;;5052908;28;20382;-71
2022/10/08 03:36:23;;;;;;;2.83;1.05;;;11.80;99.90;;;;;;5052965;28;20049;-71
2022/10/08 03:38:49;;;;;;;2.20;1.00;;;12.00;99.90;;;;;;5052509;28;20045;-71
2022/10/08 03:41:16;;;;;;;3.72;1.30;;;11.80;99.90;;;;;;5055863;28;20053;-71
2022/10/08 03:43:42;;;;;;;5.65;1.40;;;11.70;99.90;;;;;;5055715;28;20041;-71
2022/10/08 03:46:10;;;;;;;5.00;1.17;;;11.90;99.90;;;;;;5055689;28;20049;-71
2022/10/08 03:48:36;;;;;;;6.05;1.23;;;11.80;99.90;;;;;;5055816;28;20053;-71
2022/10/08 03:51:06;;;;;;;3.75;1.20;;;11.60;99.90;;;;;;5039141;28;20052;-71
2022/10/08 03:53:36;;;;;;;4.97;1.45;;;11.60;99.90;;;;;;5056813;28;20067;-71
2022/10/08 03:56:09;;;;;;;5.07;1.30;;;11.80;99.90;;;;;;5056825;28;20099;-71
2022/10/08 03:58:35;;;;;;;4.80;1.55;;;11.70;99.90;;;;;;5056171;28;20051;-71
2022/10/08 04:01:07;;;;;;;4.57;1.33;;;11.50;99.90;;;;;;5056603;28;20044;-71
2022/10/08 04:03:33;;;;;;;4.35;1.40;;;11.60;99.90;;;;;;5055835;28;20057;-71
2022/10/08 04:05:59;;;;;;;5.18;1.25;;;11.60;99.90;;;;;;5056285;28;20045;-71
2022/10/08 04:08:25;;;;;;;5.30;1.70;;;11.80;99.90;;;;;;5055073;28;20428;-71
2022/10/08 04:10:52;;;;;;;4.22;1.27;;;11.60;99.90;;;;;;5056088;28;20048;-71
2022/10/08 04:13:18;;;;;;;3.55;1.05;;;11.60;99.90;;;;;;5071630;28;20114;-70
2022/10/08 04:15:46;;;;;;;2.15;1.00;;;11.80;99.90;;;;;;5055336;28;20041;-71
2022/10/08 04:18:12;;;;;;;4.45;1.10;;;11.70;99.90;;;;;;5055527;28;20067;-71
2022/10/08 04:20:42;;;;;;;6.03;1.35;;;11.60;99.90;;;;;;5055119;28;20052;-71
2022/10/08 04:23:09;;;;;;;5.20;1.30;;;11.70;99.90;;;;;;5056399;28;20461;-71
2022/10/08 04:25:36;;;;;;;3.78;0.90;;;11.80;99.90;;;;;;5055118;28;20497;-71
2022/10/08 04:28:05;;;;;;;4.75;1.20;;;11.60;99.90;;;;;;5071737;28;20045;-71
2022/10/08 04:30:31;;;;;;;4.93;1.20;;;11.60;99.90;;;;;;5054290;28;20120;-71
2022/10/08 04:32:57;;;;;;;4.00;0.95;;;11.70;99.90;;;;;;5055955;28;20045;-71
2022/10/08 04:35:23;;;;;;;4.75;1.50;;;11.70;99.90;;;;;;5054714;28;20041;-71
2022/10/08 04:37:49;;;;;;;5.78;1.08;;;11.60;99.90;;;;;;5054541;28;20061;-71
2022/10/08 04:40:15;;;;;;;3.85;1.05;;;11.80;99.90;;;;;;5056579;28;20041;-71
2022/10/08 04:42:40;;;;;;;5.90;1.20;;;11.60;99.90;;;;;;5055738;28;20488;-71
2022/10/08 04:45:06;;;;;;;4.70;1.10;;;11.50;99.90;;;;;;5054826;28;20110;-70
2022/10/08 04:47:32;;;;;;;5.20;1.10;;;11.60;99.90;;;;;;5055585;28;20037;-71
2022/10/08 04:49:58;;;;;;;5.00;1.20;;;11.60;99.90;;;;;;5055542;28;20056;-71
2022/10/08 04:52:23;;;;;;;5.65;1.10;;;11.50;99.90;;;;;;5053878;28;20445;-71
2022/10/08 04:54:49;;;;;;;5.25;1.00;;;11.50;99.90;;;;;;5038140;28;20051;-71
2022/10/08 04:57:15;;;;;;;4.50;1.33;;;11.60;99.90;;;;;;5054722;28;20045;-71
2022/10/08 04:59:40;;;;;;;4.65;1.00;;;11.50;99.90;;;;;;5055332;28;20037;-71
2022/10/08 05:02:06;;;;;;;6.45;0.93;;;11.50;99.90;;;;;;5071131;28;20080;-71
2022/10/08 05:04:32;;;;;;;6.68;1.00;;;11.40;99.90;;;;;;5054148;28;20125;-71
2022/10/08 05:06:57;;;;;;;5.63;1.10;;;11.60;99.90;;;;;;5053914;28;20063;-71
2022/10/08 05:09:23;;;;;;;4.00;1.10;;;11.30;99.90;;;;;;5055403;28;20085;-71
2022/10/08 05:11:50;;;;;;;2.30;0.90;;;11.40;99.90;;;;;;5055478;28;20052;-71
2022/10/08 05:14:15;;;;;;;5.88;1.20;;;11.30;99.90;;;;;;5055276;28;20049;-71
2022/10/08 05:16:41;;;;;;;3.67;0.90;;;11.50;99.90;;;;;;5070967;28;20388;-71
2022/10/08 05:19:07;;;;;;;6.03;0.98;;;11.40;99.90;;;;;;5054297;28;20562;-71
2022/10/08 05:21:33;;;;;;;5.40;1.25;;;11.50;99.90;;;;;;5054848;28;20051;-71
2022/10/08 05:24:01;;;;;;;5.97;1.15;;;11.40;99.90;;;;;;5055388;28;20041;-71
2022/10/08 05:26:29;;;;;;;4.93;1.00;;;11.40;99.90;;;;;;5054232;28;20068;-71
2022/10/08 05:28:57;;;;;;;3.95;1.10;;;11.30;99.90;;;;;;5054368;28;20057;-71
2022/10/08 05:31:24;;;;;;;6.75;1.27;;;11.20;99.90;;;;;;5054103;28;20491;-71
2022/10/08 05:33:50;;;;;;;6.90;1.17;;;11.20;99.90;;;;;;5070440;28;20045;-71
2022/10/08 05:36:19;;;;;;;6.47;1.67;;;11.20;99.90;;;;;;5037498;28;20110;-71
2022/10/08 05:38:45;;;;;;;4.40;1.77;;;11.20;99.90;;;;;;5054939;28;20053;-71
2022/10/08 05:41:22;;;;;;;5.88;1.38;;;11.20;99.90;;;;;;5053743;28;20048;-71
2022/10/08 05:43:49;;;;;;;5.28;1.30;;;11.20;99.90;;;;;;5054272;28;20467;-71
2022/10/08 05:46:16;;;;;;;7.85;1.33;;;11.10;99.90;;;;;;5053433;28;20053;-71
2022/10/08 05:48:43;;;;;;;6.13;1.40;;;11.10;99.90;;;;;;5053449;28;20053;-71
2022/10/08 05:51:14;;;;;;;6.05;1.27;;;11.20;99.90;;;;;;5054704;28;20052;-71
2022/10/08 05:53:41;;;;;;;6.60;1.20;;;11.10;99.90;;;;;;5053745;28;20049;-71
2022/10/08 05:56:09;;;;;;;5.97;1.33;;;11.10;99.90;;;;;;5053276;28;20110;-71
2022/10/08 05:58:38;;;;;;;5.03;1.40;;;11.10;99.90;;;;;;5053858;28;20037;-71
2022/10/08 06:01:15;;;;;;;6.00;1.50;;;11.00;99.90;;;;;;5053986;28;20124;-71
2022/10/08 06:03:42;;;;;;;3.67;1.02;;;11.20;99.90;;;;;;5054450;28;20045;-71
2022/10/08 06:06:10;;;;;;;4.90;1.20;;;11.00;99.90;;;;;;5054533;28;20049;-71
2022/10/08 06:08:37;;;;;;;4.43;1.23;;;11.20;99.90;;;;;;5054111;28;20497;-71
2022/10/08 06:11:04;;;;;;;4.00;1.10;;;11.00;99.90;;;;;;5054189;28;20461;-71
2022/10/08 06:13:30;;;;;;;5.75;1.30;;;11.10;99.90;;;;;;5053878;28;20127;-71
2022/10/08 06:16:04;;;;;;;4.78;1.27;;;11.00;99.90;;;;;;5054357;28;20048;-71
2022/10/08 06:18:33;;;;;;;6.90;1.20;;;11.10;99.90;;;;;;5054002;28;20535;-71
2022/10/08 06:21:07;;;;;;;4.25;1.00;;;11.00;99.90;;;;;;5053970;28;20052;-71
2022/10/08 06:23:33;;;;;;;4.72;1.02;;;11.10;99.90;;;;;;5054182;28;20045;-71
2022/10/08 06:26:07;;;;;;;7.03;1.10;;;11.00;99.90;;;;;;5053877;28;20401;-71
2022/10/08 06:28:35;;;;;;;4.68;1.13;;;11.10;99.90;;;;;;5052542;28;20053;-72
2022/10/08 06:31:01;;;;;;;5.45;1.00;;;11.00;99.90;;;;;;5054029;28;20451;-71
2022/10/08 06:33:27;;;;;;;9.00;1.40;;;11.30;99.90;;;;;;5052864;28;20052;-71
2022/10/08 06:35:53;;;;;;;4.43;1.10;;;11.10;99.90;;;;;;5052667;28;20044;-71
2022/10/08 06:38:19;;;;;;;7.38;1.45;;;11.10;99.90;;;;;;5053758;28;20132;-70
2022/10/08 06:40:45;;;;;;;2.95;1.17;;;11.40;99.90;;;;;;5052263;28;20120;-71
2022/10/08 06:43:16;;;;;;;6.72;0.90;;;11.20;99.90;;;;;;5052694;28;20037;-70
2022/10/08 06:45:44;;;;;;;4.72;0.93;;;11.20;99.90;;;;;;5036098;28;20041;-71
2022/10/08 06:48:10;;;;;;;6.95;0.90;;;11.20;99.90;;;;;;5053749;28;20055;-71
2022/10/08 06:50:37;;;;;;;3.28;0.95;;;11.20;99.90;;;;;;5053825;28;20037;-71
2022/10/08 06:53:04;;;;;;;3.80;0.90;;;11.30;99.90;;;;;;5053453;28;20037;-71
2022/10/08 06:55:32;;;;;;;3.95;0.90;;;11.30;99.90;;;;;;5053459;28;20045;-71
2022/10/08 06:57:58;;;;;;;3.47;0.80;;;11.20;99.90;;;;;;5053610;28;20045;-71
2022/10/08 07:00:24;;;;;;;5.13;1.00;;;11.30;99.90;;;;;;5051958;28;20409;-71
2022/10/08 07:02:50;;;;;;;5.97;1.15;;;11.30;99.90;;;;;;5053065;28;20052;-71
2022/10/08 07:05:16;;;;;;;5.05;1.50;;;11.60;99.90;;;;;;5049373;28;20052;-72
2022/10/08 07:07:41;;;;;;;4.85;1.10;;;11.50;99.90;;;;;;5048513;28;20080;-72
2022/10/08 07:10:07;;;;;;;7.45;0.90;;;11.50;99.90;;;;;;5049998;28;20380;-74
2022/10/08 07:12:33;;;;;;;5.55;1.05;;;11.50;99.90;;;;;;5049010;28;20121;-73
2022/10/08 07:14:59;;;;;;;6.32;1.00;;;11.60;99.90;;;;;;5049556;28;20144;-73
2022/10/08 07:17:27;;;;;;;6.07;0.90;;;11.60;99.90;;;;;;5048319;28;20052;-73
2022/10/08 07:19:54;;;;;;;5.07;0.77;;;11.60;99.90;;;;;;5048977;28;20056;-73
2022/10/08 07:22:20;;;;;;;4.93;0.90;;;11.70;99.90;;;;;;5049726;28;20049;-72
2022/10/08 07:24:45;;;;;;;6.88;1.00;;;12.10;99.90;;;;;;5049820;28;20071;-72
2022/10/08 07:27:11;;;;;;;5.20;0.60;;;11.90;99.90;;;;;;5049497;28;20087;-71
2022/10/08 07:29:37;;;;;;;5.03;0.70;;;11.90;99.90;;;;;;5049729;28;20041;-74
2022/10/08 07:32:03;;;;;;;1.70;0.40;;;12.00;99.90;;;;;;5049036;28;20049;-75
2022/10/08 07:34:29;;;;;;;3.78;1.08;;;12.00;99.90;;;;;;5032214;28;20048;-74
2022/10/08 07:36:54;;;;;;;1.90;0.50;;;12.10;99.90;;;;;;5049533;28;20073;-73
2022/10/08 07:39:21;;;;;;;3.75;0.52;;;12.10;99.90;;;;;;5049750;28;20048;-74
2022/10/08 07:41:48;;;;;;;2.70;0.40;;;12.10;99.90;;;;;;5050059;28;20447;-74
2022/10/08 07:44:15;;;;;;;1.83;0.47;;;12.10;99.90;;;;;;5049260;28;20068;-76
2022/10/08 07:46:49;;;;;;;2.53;0.60;;;12.10;99.90;;;;;;5049474;28;20049;-74
2022/10/08 07:49:17;;;;;;;4.53;0.52;;;12.10;99.90;;;;;;5049547;28;20041;-74
2022/10/08 07:51:43;;;;;;;3.00;0.93;;;12.00;99.90;;;;;;5049318;28;20033;-73
2022/10/08 07:54:14;;;;;;;3.50;0.57;;;12.10;99.90;;;;;;5049569;28;20101;-74
2022/10/08 07:56:40;;;;;;;4.82;0.60;;;11.80;99.90;;;;;;5049407;28;20037;-74
2022/10/08 07:59:06;;;;;;;3.97;0.80;;;12.00;99.90;;;;;;5048018;28;20060;-74
2022/10/08 08:01:33;;;;;;;2.55;0.60;;;12.00;99.90;;;;;;5048440;28;20393;-73
2022/10/08 08:04:04;;;;;;;5.10;0.60;;;12.00;99.90;;;;;;5049423;28;20037;-73
2022/10/08 08:06:32;;;;;;;3.88;0.68;;;12.00;99.90;;;;;;5049354;28;20057;-72
2022/10/08 08:08:59;;;;;;;3.63;0.68;;;12.10;99.90;;;;;;5065109;28;20103;-73
2022/10/08 08:11:25;;;;;;;4.95;0.60;;;12.30;99.90;;;;;;5064666;28;20048;-73
2022/10/08 08:13:51;;;;;;;2.35;0.60;;;12.20;99.90;;;;;;5031678;28;20049;-72
2022/10/08 08:16:20;;;;;;;3.80;0.70;;;12.30;99.90;;;;;;5065161;28;20131;-72
2022/10/08 08:18:48;;;;;;;4.68;0.52;;;12.30;99.90;;;;;;5049627;28;20060;-72
2022/10/08 08:21:19;;;;;;;3.15;0.70;;;12.60;99.90;;;;;;5049307;28;20052;-72
2022/10/08 08:23:51;;;;;;;4.45;0.70;;;12.30;99.90;;;;;;5048969;28;20045;-73
2022/10/08 08:26:28;;;;;;;5.05;0.52;;;12.40;99.90;;;;;;5050502;28;20470;-73
2022/10/08 08:28:57;;;;;;;3.42;0.60;;;12.60;99.90;;;;;;5052641;28;20103;-74
2022/10/08 08:31:28;;;;;;;3.22;0.60;;;12.30;99.90;;;;;;5052805;28;20125;-73
2022/10/08 08:33:57;;;;;;;5.55;0.65;;;12.40;99.90;;;;;;5068557;28;20057;-73
2022/10/08 08:36:25;;;;;;;3.55;0.70;;;12.30;99.90;;;;;;5051270;28;20052;-73
2022/10/08 08:38:51;;;;;;;4.97;0.73;;;12.40;99.90;;;;;;5052664;28;20399;-73
2022/10/08 08:41:26;;;;;;;5.72;0.80;;;12.40;99.90;;;;;;5052543;28;20067;-73
2022/10/08 08:44:08;;;;;;;3.78;0.80;;;12.50;99.90;;;;;;5052399;28;20051;-73
2022/10/08 08:46:40;;;;;;;4.47;0.70;;;12.60;99.90;;;;;;5052320;28;20500;-73
2022/10/08 08:49:29;;;;;;;3.17;0.60;;;12.60;99.90;;;;;;5052244;28;20032;-72
2022/10/08 08:51:58;;;;;;;6.32;0.77;;;12.90;99.90;;;;;;5052378;28;20400;-74
2022/10/08 08:54:24;;;;;;;4.13;0.90;;;12.80;99.90;;;;;;5052267;28;20056;-73
2022/10/08 08:56:51;;;;;;;4.55;0.70;;;12.70;99.90;;;;;;5051168;28;20072;-72
2022/10/08 08:59:28;;;;;;;4.90;0.65;;;12.90;99.90;;;;;;5067412;28;20059;-73
2022/10/08 09:01:58;;;;;;;5.03;0.60;;;12.90;99.90;;;;;;5051442;28;20052;-73
2022/10/08 09:04:35;;;;;;;4.53;0.60;;;13.20;99.90;;;;;;5071634;28;20477;-71
2022/10/08 09:07:05;;;;;;;4.43;0.60;;;13.10;99.90;;;;;;5054517;28;20053;-70
2022/10/08 09:09:50;;;;;;;5.50;0.50;;;13.10;99.90;;;;;;5055638;28;20053;-72
2022/10/08 09:12:25;;;;;;;6.10;0.60;;;13.30;99.90;;;;;;5060515;28;20116;-72
2022/10/08 09:14:55;;;;;;;2.70;0.57;;;13.50;99.90;;;;;;5062957;28;20178;-71
2022/10/08 09:17:38;;;;;;;2.47;0.40;;;13.40;99.90;;;;;;5047678;28;20068;-72
2022/10/08 09:20:04;;;;;;;2.95;0.47;;;13.30;99.90;;;;;;5063691;28;20044;-71
2022/10/08 09:22:36;;;;;;;2.60;0.38;;;13.30;99.90;;;;;;5064273;28;20115;-71
2022/10/08 09:25:11;;;;;;;2.03;0.68;;;13.30;99.90;;;;;;5062898;28;20064;-71
2022/10/08 09:27:45;;;;;;;2.78;0.50;;;13.20;99.90;;;;;;5061348;28;20092;-72
2022/10/08 09:30:33;;;;;;;5.03;0.55;;;13.20;99.90;;;;;;5062521;28;20056;-72
2022/10/08 09:33:03;;;;;;;2.45;0.47;;;13.10;99.90;;;;;;5061030;28;20171;-72
2022/10/08 09:35:32;;;;;;;4.10;0.50;;;13.10;99.90;;;;;;5064057;28;20032;-72
2022/10/08 09:37:58;;;;;;;2.33;0.60;;;13.10;99.90;;;;;;5076919;28;20040;-72
2022/10/08 09:40:26;;;;;;;5.63;0.50;;;13.10;99.90;;;;;;5064697;28;20040;-72
2022/10/08 09:43:12;;;;;;;3.60;0.60;;;13.10;99.90;;;;;;5065740;28;20036;-72
2022/10/08 09:45:43;;;;;;;7.25;0.68;;;13.20;99.90;;;;;;5060225;28;20175;-71
2022/10/08 09:48:19;;;;;;;2.28;0.43;;;13.30;99.90;;;;;;5056242;28;20060;-72
2022/10/08 09:50:57;;;;;;;4.68;0.40;;;13.30;99.90;;;;;;5063028;28;20134;-72
2022/10/08 09:53:34;;;;;;;3.97;0.70;;;13.30;99.90;;;;;;5062263;28;20072;-71
2022/10/08 09:56:03;;;;;;;3.47;0.52;;;13.40;99.90;;;;;;5060117;28;20469;-71
2022/10/08 09:58:32;;;;;;;7.32;0.60;;;13.50;99.90;;;;;;5064245;28;20041;-71
2022/10/08 10:01:12;;;;;;;2.70;0.45;;;13.60;99.90;;;;;;5060663;28;20033;-71
2022/10/08 10:03:39;;;;;;;4.88;0.60;;;13.80;99.90;;;;;;5060841;28;20457;-72
2022/10/08 10:06:05;;;;;;;3.55;0.60;;;13.80;99.90;;;;;;5063568;28;20128;-72
2022/10/08 10:08:48;;;;;;;4.95;0.50;;;13.90;99.90;;;;;;5064729;28;20167;-72
2022/10/08 10:11:21;;;;;;;4.05;0.50;;;14.10;99.90;;;;;;5064006;28;20067;-71
2022/10/08 10:13:48;;;;;;;;;;;14.00;99.90;;;;;;5064916;28;20040;-72
2022/10/08 10:16:26;;;;;;;3.15;0.63;;;14.20;99.90;;;;;;5062364;28;20434;-72
2022/10/08 10:18:59;;;;;;;5.47;0.52;;;14.10;99.90;;;;;;5065121;28;20055;-72
2022/10/08 10:21:36;;;;;;;4.85;0.50;;;14.10;99.90;;;;;;5061032;28;20075;-72
2022/10/08 10:24:19;;;;;;;3.90;0.63;;;14.00;99.90;;;;;;5063007;28;20589;-72
2022/10/08 10:26:47;;;;;;;2.58;0.40;;;14.00;99.90;;;;;;5076131;28;20506;-76
2022/10/08 10:29:21;;;;;;;4.05;0.55;;;13.90;99.90;;;;;;5047066;28;20048;-73
2022/10/08 10:31:58;;;;;;;3.85;0.60;;;13.90;99.90;;;;;;5060683;28;20052;-71
2022/10/08 10:34:27;;;;;;;3.58;0.50;;;13.80;99.90;;;;;;5061759;28;20045;-70
2022/10/08 10:36:58;;;;;;;2.60;0.47;;;13.70;99.90;;;;;;5059470;28;20044;-71
2022/10/08 10:39:43;;;;;;;4.13;0.80;;;13.70;99.90;;;;;;5063748;28;20040;-71
2022/10/08 10:42:26;;;;;;;5.55;0.60;;;13.70;99.90;;;;;;5060980;28;20074;-72
2022/10/08 10:44:59;;;;;;;7.18;0.70;;;13.70;99.90;;;;;;5063808;28;20045;-72
2022/10/08 10:47:29;;;;;;;4.45;1.00;;;13.70;99.90;;;;;;5061357;28;20062;-72
2022/10/08 10:49:56;;;;;;;6.13;0.80;;;13.60;99.90;;;;;;5063600;28;20043;-72
2022/10/08 10:52:49;;;;;;;3.38;0.60;;;13.80;99.90;;;;;;5060460;28;20044;-73
2022/10/08 10:55:17;;;;;;;;;;;13.80;99.90;;;;;;5080321;28;20041;-72
2022/10/08 10:58:04;;;;;;;4.97;0.85;;;13.90;99.90;;;;;;5061399;28;20288;-72
2022/10/08 11:00:54;;;;;;;3.72;0.50;;;14.10;99.90;;;;;;5062767;28;20041;-71
2022/10/08 11:03:35;;;;;;;4.35;0.70;;;14.20;99.90;;;;;;5058709;28;20362;-72
2022/10/08 11:06:36;;;;;;;3.75;0.60;;;14.20;99.90;;;;;;5060086;28;20095;-71
2022/10/08 11:09:34;;;;;;;7.22;1.08;;;14.40;99.90;;;;;;5076991;28;20130;-71
2022/10/08 11:12:20;;;;;;;3.72;0.40;;;14.20;99.90;;;;;;5074092;28;20048;-71
2022/10/08 11:15:14;;;;;;;3.40;1.08;;;14.30;99.90;;;;;;5058524;28;20044;-71
2022/10/08 11:18:10;;;;;;;3.35;0.50;;;14.30;99.90;;;;;;5040045;28;20073;-71
2022/10/08 11:20:38;;;;;;;4.18;0.50;;;14.30;99.90;;;;;;5053671;28;20123;-72
2022/10/08 11:23:25;;;;;;;6.22;0.43;;;14.10;99.90;;;;;;5052618;28;20507;-72
2022/10/08 11:25:59;;;;;;;4.30;0.70;;;14.00;99.90;;;;;;5052377;28;20080;-71
2022/10/08 11:28:34;;;;;;;6.43;0.60;;;14.10;99.90;;;;;;5052830;28;20033;-74
2022/10/08 11:31:34;;;;;;;5.30;0.50;;;14.10;99.90;;;;;;5052880;28;20536;-72
2022/10/08 11:34:02;;;;;;;6.10;0.80;;;14.10;99.90;;;;;;5052310;28;20059;-72
2022/10/08 11:36:41;;;;;;;1.77;0.40;;;14.10;99.90;;;;;;5052344;28;20045;-73
2022/10/08 11:39:13;;;;;;;2.42;0.50;;;13.70;99.90;;;;;;5053635;28;20051;-74
2022/10/08 11:42:14;;;;;;;1.40;0.30;;;13.60;99.90;;;;;;5053987;28;20051;-72
2022/10/08 11:44:40;;;;;;;2.20;0.50;;;13.40;99.90;;;;;;5031048;28;20502;-71
2022/10/08 11:47:39;;;;;;;4.07;0.40;;;13.60;99.90;;;;;;5048707;28;20059;-75
2022/10/08 11:50:22;;;;;;;2.40;0.40;;;13.50;99.90;;;;;;5053394;28;20135;-71
2022/10/08 11:52:49;;;;;;;1.30;0.30;;;13.60;99.90;;;;;;5053286;28;20044;-72
2022/10/08 11:55:32;;;;;;;4.90;0.45;;;13.70;99.90;;;;;;5053393;28;20120;-71
2022/10/08 11:58:05;;;;;;;2.63;0.40;;;13.60;99.90;;;;;;5052192;28;20129;-71
2022/10/08 12:00:33;;;;;;;;;;;13.90;99.90;;;;;;5054989;28;20047;-73
2022/10/08 12:02:59;;;;;;;2.72;0.40;;;13.80;99.90;;;;;;5056025;28;20345;-73
2022/10/08 12:05:32;;;;;;;3.67;0.52;;;14.10;99.90;;;;;;5056703;28;20045;-73
2022/10/08 12:08:02;;;;;;;2.63;0.50;;;14.10;99.90;;;;;;5055952;28;20045;-73
2022/10/08 12:10:36;;;;;;;4.05;0.40;;;14.20;99.90;;;;;;5065519;28;20122;-73
2022/10/08 12:13:11;;;;;;;5.90;0.60;;;14.00;99.90;;;;;;5061744;28;20040;-74
2022/10/08 12:15:39;;;;;;;2.47;0.40;;;14.00;99.90;;;;;;5067396;28;20068;-73
2022/10/08 12:18:16;;;;;;;3.03;0.50;;;13.90;99.90;;;;;;5063596;28;20050;-74
2022/10/08 12:20:42;;;;;;;3.10;0.50;;;13.80;99.90;;;;;;5062507;28;20052;-74
2022/10/08 12:23:34;;;;;;;4.57;0.77;;;13.60;99.90;;;;;;5065464;28;20041;-74
2022/10/08 12:26:01;;;;;;;3.15;0.55;;;13.60;99.90;;;;;;5067007;28;20068;-73
2022/10/08 12:28:27;;;;;;;3.22;0.40;;;13.80;99.90;;;;;;5064994;28;20041;-74
2022/10/08 12:30:55;;;;;;;1.58;0.40;;;13.40;99.90;;;;;;5063890;28;20055;-73
2022/10/08 12:33:22;;;;;;;2.55;0.60;;;13.70;99.90;;;;;;5063187;28;20040;-75
2022/10/08 12:36:30;;;;;;;3.47;0.43;;;13.70;99.90;;;;;;5065103;28;20048;-74
2022/10/08 12:39:17;;;;;;;3.13;0.60;;;13.80;99.90;;;;;;4978224;28;20046;-74
2022/10/08 12:42:07;;;;;;;2.88;0.60;;;13.90;99.90;;;;;;4994057;28;20078;-74
2022/10/08 12:45:05;;;;;;;6.57;0.80;;;13.80;99.90;;;;;;5052009;28;20052;-75
2022/10/08 12:47:53;;;;;;;5.57;0.60;;;14.00;99.90;;;;;;5061912;28;20033;-73
2022/10/08 12:50:51;;;;;;;4.10;0.50;;;14.00;99.90;;;;;;5065338;28;20052;-73
2022/10/08 12:53:17;;;;;;;3.83;0.70;;;14.10;99.90;;;;;;5062959;28;20040;-73
2022/10/08 12:55:52;;;;;;;3.58;0.50;;;14.20;99.90;;;;;;5063707;28;20119;-72
2022/10/08 12:58:25;;;;;;;5.80;0.90;;;14.30;99.90;;;;;;5046545;28;20127;-74
2022/10/08 13:00:55;;;;;;;;;;;14.30;99.90;;;;;;5065722;28;20123;-74
2022/10/08 13:03:21;;;;;;;5.90;0.70;;;14.40;99.90;;;;;;5062325;28;19916;-74
2022/10/08 13:05:48;;;;;;;2.47;0.60;;;14.60;99.90;;;;;;5063561;28;20114;-74
2022/10/08 13:08:37;;;;;;;5.18;0.68;;;14.50;99.90;;;;;;5062459;28;20504;-75
2022/10/08 13:11:12;;;;;;;5.20;0.50;;;14.50;99.90;;;;;;5061686;28;20060;-74
2022/10/08 13:13:37;;;;;;;5.65;0.80;;;14.40;99.90;;;;;;5063134;28;20037;-75